Time;durP1;ratioP1;P1;durP2;ratioP2;P2;SDS_P1;SDS_P2;PMS_P1;PMS_P2;Temp;Humidity;BMP_temperature;BMP_pressure;BME280_temperature;BME280_humidity;BME280_pressure;Samples;Min_cycle;Max_cycle;Signal;HPM_P1;HPM_P2
2022/12/24 00:00:30;;;;;;;175.03;82.07;;;;;;;3.46;91.42;99395.16;4992606;28;20499;-70
2022/12/24 00:02:57;;;;;;;167.77;84.83;;;;;;;3.45;91.69;99401.38;4991985;28;20445;-71
2022/12/24 00:05:24;;;;;;;171.80;87.53;;;;;;;3.42;91.05;99399.06;4992508;28;20819;-72
2022/12/24 00:07:50;;;;;;;169.80;84.40;;;;;;;3.39;91.24;99401.19;4992336;28;20438;-70
2022/12/24 00:10:17;;;;;;;163.37;86.70;;;;;;;3.39;90.92;99399.34;4992359;28;20535;-70
2022/12/24 00:12:44;;;;;;;178.63;88.30;;;;;;;3.38;91.65;99405.59;4992222;28;20445;-70
2022/12/24 00:15:12;;;;;;;157.10;83.20;;;;;;;3.39;91.35;99409.84;4992000;28;20265;-70
2022/12/24 00:17:39;;;;;;;171.60;87.63;;;;;;;3.35;89.87;99408.50;4992176;28;20195;-70
2022/12/24 00:20:07;;;;;;;166.67;85.03;;;;;;;3.32;90.11;99408.84;4992128;28;20473;-71
2022/12/24 00:22:34;;;;;;;165.13;86.83;;;;;;;3.36;90.03;99415.44;4995339;28;20477;-70
2022/12/24 00:25:00;;;;;;;173.93;89.33;;;;;;;3.40;90.81;99406.28;4995445;28;20445;-70
2022/12/24 00:27:27;;;;;;;192.87;89.90;;;;;;;3.43;91.50;99410.41;4995611;28;20496;-70
2022/12/24 00:29:54;;;;;;;161.47;85.70;;;;;;;3.46;91.24;99412.69;4995551;28;20477;-71
2022/12/24 00:32:22;;;;;;;165.83;84.40;;;;;;;3.44;91.53;99407.59;4995914;28;20441;-72
2022/12/24 00:34:48;;;;;;;165.53;86.67;;;;;;;3.46;90.72;99415.31;4995210;28;20469;-72
2022/12/24 00:37:15;;;;;;;172.57;83.17;;;;;;;3.39;90.66;99399.34;4995108;28;20869;-72
2022/12/24 00:39:42;;;;;;;168.77;83.83;;;;;;;3.46;90.18;99417.94;4995438;28;20508;-72
2022/12/24 00:42:08;;;;;;;167.20;82.63;;;;;;;3.42;88.92;99414.81;4995454;28;20441;-72
2022/12/24 00:44:35;;;;;;;178.63;85.47;;;;;;;3.41;89.18;99413.16;4995017;28;20499;-71
2022/12/24 00:47:02;;;;;;;167.27;83.43;;;;;;;3.39;89.14;99409.06;4994917;28;20445;-71
2022/12/24 00:49:30;;;;;;;164.40;84.33;;;;;;;3.39;88.76;99403.81;4994891;28;20698;-71
2022/12/24 00:51:56;;;;;;;153.47;81.07;;;;;;;3.33;89.21;99415.72;4995324;28;20433;-72
2022/12/24 00:54:23;;;;;;;162.30;83.53;;;;;;;3.31;90.03;99406.38;4995475;28;20508;-72
2022/12/24 00:56:50;;;;;;;150.93;80.13;;;;;;;3.30;89.57;99405.53;4994800;28;20446;-72
2022/12/24 00:59:16;;;;;;;175.50;86.20;;;;;;;3.20;89.25;99410.06;4994678;28;21011;-70
2022/12/24 01:01:43;;;;;;;158.43;83.83;;;;;;;3.14;90.64;99405.41;4995162;28;20438;-70
2022/12/24 01:06:56;;;;;;;194.53;92.30;;;;;;;3.06;91.69;99401.91;4995159;28;20413;-71
2022/12/24 01:09:22;;;;;;;200.87;95.50;;;;;;;3.07;91.32;99401.72;4994521;28;20575;-71
2022/12/24 01:11:49;;;;;;;174.97;91.07;;;;;;;3.07;91.29;99396.47;4994780;28;20531;-70
2022/12/24 01:14:16;;;;;;;172.33;86.67;;;;;;;3.01;90.96;99399.72;4994863;28;20523;-70
2022/12/24 01:16:42;;;;;;;194.90;91.73;;;;;;;3.00;90.77;99390.19;4994348;28;20488;-70
2022/12/24 01:19:09;;;;;;;179.73;85.83;;;;;;;2.87;91.12;99384.50;4994730;28;20449;-70
2022/12/24 01:21:36;;;;;;;168.37;81.60;;;;;;;2.83;91.93;99380.53;4994132;28;20945;-71
2022/12/24 01:24:04;;;;;;;177.90;86.20;;;;;;;2.87;91.69;99381.88;4993769;28;20446;-70
2022/12/24 01:26:31;;;;;;;166.47;82.37;;;;;;;2.81;91.20;99371.97;4993621;28;20478;-70
2022/12/24 01:28:59;;;;;;;158.87;83.00;;;;;;;2.81;91.05;99371.97;4993977;28;21040;-70
2022/12/24 01:31:25;;;;;;;166.20;79.57;;;;;;;2.85;91.46;99377.75;4994792;28;20503;-71
2022/12/24 01:33:52;;;;;;;144.90;74.83;;;;;;;2.87;91.64;99376.66;4993536;28;20442;-70
2022/12/24 01:36:19;;;;;;;145.97;75.90;;;;;;;2.85;90.65;99383.81;4994033;28;20437;-70
2022/12/24 01:38:45;;;;;;;151.90;74.03;;;;;;;2.82;90.78;99383.31;4994237;28;20445;-70
2022/12/24 01:44:17;;;;;;;150.00;77.83;;;;;;;2.85;91.34;99378.56;4994032;28;20474;-70
2022/12/24 01:46:45;;;;;;;169.20;77.90;;;;;;;2.79;89.86;99381.81;4994019;28;20941;-70
2022/12/24 01:49:14;;;;;;;156.73;77.57;;;;;;;2.71;91.09;99371.25;4993663;28;20857;-70
2022/12/24 01:51:45;;;;;;;150.47;76.10;;;;;;;2.69;90.58;99383.66;4994087;28;20441;-70
2022/12/24 01:54:15;;;;;;;154.83;78.90;;;;;;;2.66;91.27;99377.91;4993633;28;20453;-70
2022/12/24 01:56:46;;;;;;;155.73;77.50;;;;;;;2.64;90.67;99371.97;4994556;28;20434;-70
2022/12/24 01:59:17;;;;;;;158.30;80.40;;;;;;;2.69;90.50;99378.41;4993581;28;20565;-69
2022/12/24 02:01:43;;;;;;;153.37;80.43;;;;;;;2.55;90.67;99376.31;4994516;28;20434;-69
2022/12/24 02:04:19;;;;;;;149.60;77.00;;;;;;;2.42;91.50;99370.63;4993474;28;20850;-69
2022/12/24 02:06:46;;;;;;;155.17;79.63;;;;;;;2.41;92.74;99374.19;4993534;28;20464;-69
2022/12/24 02:09:14;;;;;;;150.23;79.23;;;;;;;2.37;92.93;99372.84;4993610;28;20441;-69
2022/12/24 02:11:44;;;;;;;161.63;78.50;;;;;;;2.40;92.57;99371.72;4993796;28;20441;-69
2022/12/24 02:14:12;;;;;;;157.07;80.07;;;;;;;2.35;92.80;99369.56;4992733;28;21017;-70
2022/12/24 02:16:47;;;;;;;145.47;76.63;;;;;;;2.37;93.01;99362.34;4993228;28;20446;-70
2022/12/24 02:19:44;;;;;;;150.90;78.17;;;;;;;2.47;93.16;99364.91;4992689;28;20496;-69
2022/12/24 02:22:15;;;;;;;160.87;79.87;;;;;;;2.47;91.92;99367.53;4993820;28;20489;-70
2022/12/24 02:25:02;;;;;;;152.60;81.03;;;;;;;2.46;92.33;99356.25;4993235;28;20441;-69
2022/12/24 02:27:54;;;;;;;159.57;76.40;;;;;;;2.49;92.35;99361.19;4993150;28;20429;-70
2022/12/24 02:30:23;;;;;;;164.97;79.30;;;;;;;2.47;90.93;99373.63;4993339;28;20579;-69
2022/12/24 02:33:14;;;;;;;145.13;77.13;;;;;;;2.38;90.94;99369.28;4993329;28;20437;-69
2022/12/24 02:35:48;;;;;;;143.43;73.13;;;;;;;2.34;90.74;99367.91;4993381;28;20500;-70
2022/12/24 02:38:22;;;;;;;149.97;73.67;;;;;;;2.37;91.35;99372.84;4993619;28;20511;-69
2022/12/24 02:40:52;;;;;;;149.00;76.90;;;;;;;2.41;92.36;99376.81;4994067;28;20516;-69
2022/12/24 02:43:22;;;;;;;152.67;79.90;;;;;;;2.45;92.68;99380.78;4993186;28;20446;-69
2022/12/24 02:45:55;;;;;;;151.57;79.47;;;;;;;2.41;92.36;99376.00;4992939;28;20448;-70
2022/12/24 02:48:24;;;;;;;150.77;75.03;;;;;;;2.40;92.52;99382.19;4993116;28;20495;-70
2022/12/24 02:51:01;;;;;;;144.17;73.70;;;;;;;2.40;92.18;99382.19;4993554;28;20571;-70
2022/12/24 02:53:28;;;;;;;146.87;77.37;;;;;;;2.35;90.97;99395.75;4993548;28;20508;-70
2022/12/24 02:56:12;;;;;;;155.80;74.40;;;;;;;2.25;91.83;99394.97;4992773;28;20446;-70
2022/12/24 02:58:47;;;;;;;160.83;74.07;;;;;;;2.16;92.77;99392.44;4993118;28;20815;-70
2022/12/24 03:01:25;;;;;;;138.33;69.20;;;;;;;2.05;93.79;99387.38;4992985;28;20433;-69
2022/12/24 03:04:04;;;;;;;140.57;72.37;;;;;;;2.12;93.85;99389.25;4992882;28;20430;-69
2022/12/24 03:06:43;;;;;;;144.10;69.43;;;;;;;2.16;94.35;99390.63;4992043;28;20487;-70
2022/12/24 03:09:18;;;;;;;129.73;67.03;;;;;;;2.19;94.11;99387.72;4992378;28;20437;-70
2022/12/24 03:11:53;;;;;;;139.90;68.77;;;;;;;2.24;94.27;99380.22;4993002;28;20504;-70
2022/12/24 03:14:21;;;;;;;119.07;63.83;;;;;;;2.27;92.68;99379.09;4992484;28;21002;-71
2022/12/24 03:16:50;;;;;;;129.07;64.33;;;;;;;2.25;92.62;99366.16;4992706;28;20500;-71
2022/12/24 03:19:17;;;;;;;127.97;66.03;;;;;;;2.31;90.79;99372.59;4992270;28;20937;-71
2022/12/24 03:21:45;;;;;;;120.87;65.73;;;;;;;2.32;91.72;99367.22;4993210;28;20473;-70
2022/12/24 03:24:12;;;;;;;125.40;63.20;;;;;;;2.33;90.91;99365.44;4992652;28;20464;-70
2022/12/24 03:26:39;;;;;;;134.20;66.67;;;;;;;2.32;91.54;99364.59;4992662;28;20449;-70
2022/12/24 03:29:08;;;;;;;133.67;66.07;;;;;;;2.30;91.15;99363.94;4992887;28;20434;-71
2022/12/24 03:31:43;;;;;;;132.00;65.63;;;;;;;2.30;91.14;99361.31;4992287;28;21079;-71
2022/12/24 03:34:12;;;;;;;126.40;65.70;;;;;;;2.28;91.24;99358.00;4992206;28;20445;-71
2022/12/24 03:36:39;;;;;;;129.93;65.23;;;;;;;2.28;91.15;99363.25;4992596;28;20500;-71
2022/12/24 03:39:08;;;;;;;126.70;63.67;;;;;;;2.15;91.48;99352.28;4992476;28;20529;-70
2022/12/24 03:41:34;;;;;;;124.77;60.57;;;;;;;2.11;91.75;99371.91;4992170;28;20831;-70
2022/12/24 03:44:01;;;;;;;129.90;64.33;;;;;;;2.14;92.29;99366.38;4992874;28;20503;-70
2022/12/24 03:46:28;;;;;;;131.57;61.63;;;;;;;2.07;92.90;99365.28;4992772;28;20502;-71
2022/12/24 03:48:55;;;;;;;124.73;63.77;;;;;;;2.09;92.79;99371.22;4992162;28;20446;-71
2022/12/24 03:51:25;;;;;;;127.30;61.90;;;;;;;2.08;91.95;99366.13;4992080;28;20484;-70
2022/12/24 03:53:52;;;;;;;127.90;63.50;;;;;;;2.06;91.53;99363.66;4992977;28;20446;-70
2022/12/24 03:56:20;;;;;;;132.77;64.47;;;;;;;1.96;91.87;99359.44;4994088;28;20446;-70
2022/12/24 03:58:47;;;;;;;126.63;65.20;;;;;;;1.96;92.18;99347.16;4995769;28;20904;-70
2022/12/24 04:01:14;;;;;;;124.03;62.87;;;;;;;1.98;92.26;99347.84;4996438;28;20533;-70
2022/12/24 04:03:40;;;;;;;126.30;62.60;;;;;;;1.98;92.12;99345.22;4995972;28;20437;-70
2022/12/24 04:06:09;;;;;;;128.83;60.53;;;;;;;1.95;92.79;99349.91;4995669;28;20495;-70
2022/12/24 04:08:37;;;;;;;120.50;60.57;;;;;;;1.92;93.17;99361.50;4996215;28;20437;-70
2022/12/24 04:11:05;;;;;;;123.70;58.70;;;;;;;1.90;92.23;99366.06;4995896;28;20477;-70
2022/12/24 04:13:32;;;;;;;117.80;58.83;;;;;;;1.79;93.63;99355.78;4995555;28;20979;-70
2022/12/24 04:15:59;;;;;;;110.67;58.80;;;;;;;1.81;94.36;99363.50;4995931;28;20639;-69
2022/12/24 04:18:26;;;;;;;124.27;59.47;;;;;;;1.81;94.72;99345.16;4995863;28;20512;-69
2022/12/24 04:20:53;;;;;;;115.60;60.63;;;;;;;1.94;93.93;99353.50;4995517;28;20908;-72
2022/12/24 04:23:20;;;;;;;117.33;57.63;;;;;;;1.95;92.58;99355.97;4995410;28;20504;-72
2022/12/24 04:25:49;;;;;;;124.03;59.93;;;;;;;2.01;93.23;99362.44;4995683;28;20499;-71
2022/12/24 04:28:16;;;;;;;116.40;59.67;;;;;;;2.00;93.05;99364.22;4996258;28;20437;-71
2022/12/24 04:30:43;;;;;;;109.47;57.70;;;;;;;2.01;92.76;99370.28;4995443;28;20474;-71
2022/12/24 04:33:10;;;;;;;118.10;58.77;;;;;;;2.09;93.02;99378.25;4995320;28;20833;-71
2022/12/24 04:35:40;;;;;;;109.40;57.43;;;;;;;2.11;92.02;99371.91;4995418;28;20446;-70
2022/12/24 04:38:07;;;;;;;113.17;56.30;;;;;;;2.12;91.78;99367.50;4995774;28;20449;-70
2022/12/24 04:40:34;;;;;;;124.37;58.20;;;;;;;2.12;91.35;99368.28;4995386;28;20449;-70
2022/12/24 04:43:02;;;;;;;124.63;58.50;;;;;;;2.07;90.97;99373.16;4995129;28;20945;-70
2022/12/24 04:45:28;;;;;;;118.83;58.90;;;;;;;2.01;91.06;99381.59;4995311;28;20438;-71
2022/12/24 04:47:55;;;;;;;110.83;57.47;;;;;;;2.04;92.12;99380.50;4995024;28;20942;-71
2022/12/24 04:50:22;;;;;;;123.33;58.33;;;;;;;2.06;91.53;99386.41;4995042;28;20850;-71
2022/12/24 04:52:48;;;;;;;134.57;62.57;;;;;;;2.09;92.15;99379.09;4995518;28;20634;-71
2022/12/24 04:55:15;;;;;;;121.60;62.87;;;;;;;2.12;91.82;99365.69;4994797;28;20934;-70
2022/12/24 04:57:42;;;;;;;131.07;63.83;;;;;;;2.13;91.70;99366.50;4994875;28;20449;-70
2022/12/24 05:00:12;;;;;;;120.73;60.33;;;;;;;2.14;91.69;99376.84;4994710;28;20549;-70
2022/12/24 05:02:39;;;;;;;127.10;61.97;;;;;;;2.17;91.67;99371.28;4994849;28;20496;-70
2022/12/24 05:05:07;;;;;;;122.73;62.60;;;;;;;2.15;91.69;99378.50;4995093;28;20537;-70
2022/12/24 05:07:34;;;;;;;124.97;63.47;;;;;;;2.05;91.08;99372.50;4994856;28;20441;-70
2022/12/24 05:10:00;;;;;;;124.87;63.73;;;;;;;2.00;92.14;99385.16;4994332;28;20943;-70
2022/12/24 05:12:27;;;;;;;125.17;62.93;;;;;;;2.04;92.38;99380.50;4994864;28;20446;-70
2022/12/24 05:14:54;;;;;;;124.90;60.73;;;;;;;1.97;92.37;99377.63;4994770;28;20508;-70
2022/12/24 05:17:22;;;;;;;114.00;60.87;;;;;;;2.02;92.38;99377.16;4994759;28;20438;-69
2022/12/24 05:19:49;;;;;;;116.50;62.43;;;;;;;2.05;91.83;99382.97;4994485;28;20437;-70
2022/12/24 05:27:43;;;;;;;133.03;65.83;;;;;;;2.03;91.45;99379.66;4994968;28;20466;-70
2022/12/24 05:30:10;;;;;;;130.60;63.87;;;;;;;2.03;91.74;99378.81;4994223;28;20496;-70
2022/12/24 05:32:38;;;;;;;138.83;62.90;;;;;;;2.05;91.72;99377.72;4994477;28;20504;-70
2022/12/24 05:35:05;;;;;;;138.37;67.27;;;;;;;2.06;91.25;99379.38;4994415;28;20500;-70
2022/12/24 05:37:32;;;;;;;130.93;67.70;;;;;;;2.09;91.21;99386.94;4994074;28;20441;-70
2022/12/24 05:39:59;;;;;;;151.43;66.17;;;;;;;2.11;91.27;99382.38;4994160;28;20831;-70
2022/12/24 05:42:25;;;;;;;138.37;68.23;;;;;;;2.12;90.67;99384.00;4995098;28;20797;-70
2022/12/24 05:44:52;;;;;;;142.90;66.17;;;;;;;2.02;90.16;99385.03;4994151;28;20504;-70
2022/12/24 05:47:19;;;;;;;142.07;68.20;;;;;;;2.09;90.40;99394.81;4994067;28;20453;-70
2022/12/24 05:49:47;;;;;;;143.20;69.57;;;;;;;2.10;91.17;99390.38;4993778;28;20441;-70
2022/12/24 05:52:13;;;;;;;146.23;68.50;;;;;;;2.01;91.38;99386.84;4993981;28;20473;-70
2022/12/24 05:54:40;;;;;;;136.10;69.07;;;;;;;2.07;91.71;99391.50;4994173;28;20445;-71
2022/12/24 05:57:07;;;;;;;129.97;67.93;;;;;;;1.93;91.68;99391.97;4993706;28;20513;-70
2022/12/24 05:59:34;;;;;;;140.00;66.97;;;;;;;1.89;92.00;99392.41;4993952;28;20445;-70
2022/12/24 06:02:00;;;;;;;142.00;69.60;;;;;;;1.82;91.53;99397.38;4993517;28;20512;-70
2022/12/24 06:04:27;;;;;;;148.50;68.23;;;;;;;1.92;92.75;99395.53;4993878;28;20512;-70
2022/12/24 06:06:55;;;;;;;143.33;66.90;;;;;;;1.97;92.15;99406.44;4993813;28;20528;-69
2022/12/24 06:09:22;;;;;;;138.73;66.57;;;;;;;1.88;91.69;99404.66;4994629;28;20438;-69
2022/12/24 06:11:48;;;;;;;131.90;66.77;;;;;;;1.95;92.54;99410.97;4993230;28;20504;-70
2022/12/24 06:14:15;;;;;;;125.73;65.03;;;;;;;2.05;93.73;99414.41;4993441;28;20934;-70
2022/12/24 06:16:42;;;;;;;128.63;65.83;;;;;;;2.04;92.76;99420.59;4993794;28;20508;-71
2022/12/24 06:19:08;;;;;;;147.93;67.57;;;;;;;2.02;93.53;99412.06;4992833;28;20512;-70
2022/12/24 06:21:35;;;;;;;146.87;73.57;;;;;;;2.13;92.85;99411.88;4993135;28;21031;-72
2022/12/24 06:24:04;;;;;;;145.97;72.03;;;;;;;2.31;92.76;99410.13;4992851;28;20430;-71
2022/12/24 06:26:31;;;;;;;152.83;77.30;;;;;;;2.49;92.74;99413.59;4992140;28;20942;-72
2022/12/24 06:28:57;;;;;;;180.00;90.87;;;;;;;2.64;92.72;99406.88;4992735;28;20434;-73
2022/12/24 06:31:24;;;;;;;149.47;70.27;;;;;;;2.92;92.46;99420.75;4989396;28;20536;-74
2022/12/24 06:33:52;;;;;;;145.43;72.10;;;;;;;3.09;91.12;99415.53;4990770;28;20500;-74
2022/12/24 06:36:21;;;;;;;153.70;74.03;;;;;;;3.12;90.32;99417.84;4991704;28;20529;-79
2022/12/24 06:38:49;;;;;;;136.20;70.17;;;;;;;3.36;90.29;99420.69;4992771;28;20496;-73
2022/12/24 06:41:18;;;;;;;152.40;76.67;;;;;;;3.44;90.21;99402.34;4992551;28;20450;-73
2022/12/24 06:43:45;;;;;;;134.53;69.27;;;;;;;3.80;90.61;99424.91;4992722;28;20442;-71
2022/12/24 06:46:13;;;;;;;144.53;76.30;;;;;;;4.20;88.30;99437.44;4992757;28;20441;-70
2022/12/24 06:48:40;;;;;;;146.67;75.53;;;;;;;4.42;86.51;99435.06;4993179;28;20446;-72
2022/12/24 06:51:07;;;;;;;142.63;74.67;;;;;;;4.69;85.10;99434.84;5005745;28;20709;-73
2022/12/24 06:53:34;;;;;;;138.97;68.60;;;;;;;4.98;85.34;99427.34;5011334;28;20255;-72
2022/12/24 06:56:04;;;;;;;140.50;68.67;;;;;;;5.30;83.25;99430.00;5012610;28;20645;-71
2022/12/24 06:58:33;;;;;;;144.07;72.73;;;;;;;5.58;82.93;99433.97;5012162;28;20194;-70
2022/12/24 07:01:01;;;;;;;134.63;72.73;;;;;;;5.87;81.95;99430.81;5011945;28;20616;-72
2022/12/24 07:03:28;;;;;;;141.77;71.73;;;;;;;6.09;80.77;99400.28;5011943;28;20194;-73
2022/12/24 07:05:55;;;;;;;163.97;86.30;;;;;;;6.55;79.34;99428.47;5011882;28;20198;-73
2022/12/24 07:08:23;;;;;;;140.80;74.37;;;;;;;6.82;77.30;99430.63;4999991;28;20248;-71
2022/12/24 07:10:50;;;;;;;152.90;77.73;;;;;;;7.05;76.54;99432.31;5012082;28;20225;-72
2022/12/24 07:13:17;;;;;;;143.23;74.97;;;;;;;7.37;75.83;99444.44;5006321;28;20345;-72
2022/12/24 07:15:45;;;;;;;104.13;58.87;;;;;;;7.68;77.98;99430.13;4989647;28;20257;-74
2022/12/24 07:18:12;;;;;;;171.50;93.93;;;;;;;7.83;72.97;99453.97;4991877;28;20659;-72
2022/12/24 07:20:39;;;;;;;200.83;107.80;;;;;;;7.95;73.67;99444.59;4991708;28;20285;-71
2022/12/24 07:23:06;;;;;;;188.27;101.00;;;;;;;8.23;73.03;99453.59;4992085;28;20191;-67
2022/12/24 07:25:32;;;;;;;185.60;107.00;;;;;;;8.52;73.54;99450.94;4991857;28;20275;-72
2022/12/24 07:27:59;;;;;;;167.63;95.20;;;;;;;8.82;70.44;99445.41;4991898;28;20195;-75
2022/12/24 07:30:26;;;;;;;149.93;81.97;;;;;;;9.13;70.21;99455.75;4992181;28;20195;-73
2022/12/24 07:32:54;;;;;;;137.60;74.37;;;;;;;9.48;68.23;99450.41;4995623;28;20214;-73
2022/12/24 07:35:20;;;;;;;131.23;75.33;;;;;;;9.79;68.71;99455.38;4994941;28;20255;-73
2022/12/24 07:37:47;;;;;;;143.70;77.50;;;;;;;10.14;66.81;99457.09;4994965;28;20251;-73
2022/12/24 07:40:14;;;;;;;135.87;80.87;;;;;;;10.44;66.04;99469.13;4994362;28;20253;-71
2022/12/24 07:42:40;;;;;;;117.07;66.43;;;;;;;10.70;65.46;99469.25;4994976;28;20240;-72
2022/12/24 07:45:08;;;;;;;112.07;65.77;;;;;;;10.91;64.57;99462.00;4995255;28;20198;-70
2022/12/24 07:47:35;;;;;;;85.33;50.43;;;;;;;11.22;64.07;99474.78;4995769;28;20195;-71
2022/12/24 07:50:03;;;;;;;87.07;49.17;;;;;;;11.58;63.05;99477.94;4995203;28;20209;-72
2022/12/24 07:52:30;;;;;;;73.10;39.67;;;;;;;11.81;61.74;99478.41;4995616;28;20276;-73
2022/12/24 07:54:57;;;;;;;62.30;39.87;;;;;;;11.84;61.34;99475.31;4995835;28;20192;-75
2022/12/24 07:57:23;;;;;;;67.63;41.00;;;;;;;11.84;61.17;99483.28;4995922;28;20196;-75
2022/12/24 07:59:50;;;;;;;61.40;41.30;;;;;;;11.88;61.46;99476.53;4995904;28;20262;-74
2022/12/24 08:02:17;;;;;;;63.13;39.37;;;;;;;11.83;61.54;99479.00;4995527;28;20205;-74
2022/12/24 08:04:43;;;;;;;74.37;40.80;;;;;;;11.82;61.93;99485.34;4995709;28;20676;-74
2022/12/24 08:07:11;;;;;;;72.73;40.90;;;;;;;11.81;61.95;99490.88;4995767;28;20659;-70
2022/12/24 08:09:38;;;;;;;70.87;40.63;;;;;;;11.74;62.15;99490.88;4995711;28;20200;-72
2022/12/24 08:12:05;;;;;;;62.03;37.80;;;;;;;11.77;62.59;99482.50;4995247;28;20219;-70
2022/12/24 08:14:32;;;;;;;64.67;39.30;;;;;;;11.62;62.94;99487.19;4995728;28;20271;-71
2022/12/24 08:16:59;;;;;;;54.57;34.73;;;;;;;11.51;62.25;99495.72;4995313;28;20253;-72
2022/12/24 08:19:25;;;;;;;53.90;33.63;;;;;;;11.22;63.56;99493.38;4994786;28;20254;-75
2022/12/24 08:21:52;;;;;;;51.80;32.93;;;;;;;10.99;64.18;99498.22;4995570;28;20247;-73
2022/12/24 08:24:20;;;;;;;82.77;36.60;;;;;;;10.87;64.60;99492.63;4995460;28;20195;-75
2022/12/24 08:26:47;;;;;;;64.07;38.43;;;;;;;10.51;65.54;99452.22;4995466;28;20727;-70
2022/12/24 08:29:14;;;;;;;64.63;36.97;;;;;;;10.56;65.33;99488.81;4994474;28;20271;-73
2022/12/24 08:31:41;;;;;;;56.07;33.77;;;;;;;10.27;66.32;99483.72;4994923;28;20289;-72
2022/12/24 08:34:08;;;;;;;45.77;30.83;;;;;;;10.07;66.80;99488.06;4995294;28;20199;-72
2022/12/24 08:36:35;;;;;;;52.50;31.97;;;;;;;9.95;67.87;99484.28;4994836;28;20249;-72
2022/12/24 08:39:02;;;;;;;44.37;30.47;;;;;;;9.96;67.93;99476.13;4994888;28;20226;-72
2022/12/24 08:41:30;;;;;;;55.33;31.70;;;;;;;10.10;67.47;99483.19;4994684;28;20627;-70
2022/12/24 08:43:57;;;;;;;86.67;37.87;;;;;;;10.13;67.70;99471.41;4994637;28;20195;-73
2022/12/24 08:46:24;;;;;;;58.87;36.47;;;;;;;10.06;68.76;99470.53;4995056;28;20195;-74
2022/12/24 08:48:50;;;;;;;50.73;32.57;;;;;;;9.85;68.47;99467.88;4994582;28;20581;-68
2022/12/24 08:51:18;;;;;;;59.90;34.93;;;;;;;9.74;69.74;99463.09;4994624;28;20260;-69
2022/12/24 08:53:45;;;;;;;63.90;36.03;;;;;;;9.83;70.70;99449.50;4994772;28;20206;-68
2022/12/24 08:56:12;;;;;;;59.93;38.70;;;;;;;9.91;70.07;99451.19;4994300;28;20252;-68
2022/12/24 08:58:41;;;;;;;61.07;39.33;;;;;;;10.16;69.35;99450.59;4994243;28;20190;-69
2022/12/24 09:01:12;;;;;;;64.87;38.73;;;;;;;10.34;68.36;99442.13;4994184;28;20278;-69
2022/12/24 09:03:39;;;;;;;60.17;39.30;;;;;;;10.20;68.15;99456.31;4991347;28;20253;-75
2022/12/24 09:06:07;;;;;;;68.97;41.40;;;;;;;10.13;68.94;99450.16;5025636;28;20594;-70
2022/12/24 09:08:34;;;;;;;67.47;41.30;;;;;;;10.17;68.80;99452.22;4993397;28;20210;-69
2022/12/24 09:11:04;;;;;;;61.43;39.50;;;;;;;10.08;69.23;99426.03;4993785;28;20199;-71
2022/12/24 09:13:31;;;;;;;50.57;33.53;;;;;;;10.26;68.52;99450.25;4993558;28;20292;-72
2022/12/24 09:15:59;;;;;;;54.63;30.60;;;;;;;10.24;68.37;99446.94;4993479;28;20203;-69
2022/12/24 09:18:26;;;;;;;48.47;31.13;;;;;;;10.05;68.88;99443.16;4992665;28;20190;-68
2022/12/24 09:20:59;;;;;;;50.67;30.93;;;;;;;10.06;69.86;99433.38;4990899;28;20261;-68
2022/12/24 09:23:25;;;;;;;50.63;31.83;;;;;;;10.12;69.30;99437.88;4991136;28;20203;-69
2022/12/24 09:25:52;;;;;;;57.90;34.23;;;;;;;10.37;68.49;99436.41;4992929;28;20202;-67
2022/12/24 09:28:19;;;;;;;53.23;33.90;;;;;;;10.60;68.20;99436.94;4988966;28;20629;-68
2022/12/24 09:30:55;;;;;;;57.47;32.47;;;;;;;10.72;67.32;99440.66;4988239;28;20253;-68
2022/12/24 09:33:23;;;;;;;64.43;32.03;;;;;;;10.72;67.36;99435.34;4991420;28;20264;-70
2022/12/24 09:35:51;;;;;;;53.20;29.87;;;;;;;10.81;67.18;99431.50;4989068;28;20228;-68
2022/12/24 09:38:17;;;;;;;55.03;29.87;;;;;;;10.94;66.62;99428.88;4991252;28;20656;-67
2022/12/24 09:40:44;;;;;;;51.23;30.10;;;;;;;11.11;65.92;99418.72;4992430;28;20667;-68
2022/12/24 09:43:15;;;;;;;51.23;30.67;;;;;;;11.11;65.78;99424.84;4984512;28;20265;-67
2022/12/24 09:45:50;;;;;;;55.00;31.57;;;;;;;11.07;65.99;99418.31;4980300;28;20271;-67
2022/12/24 09:48:20;;;;;;;46.77;30.93;;;;;;;11.17;65.31;99424.06;4986097;28;20654;-68
2022/12/24 09:50:54;;;;;;;54.97;30.33;;;;;;;11.10;65.25;99401.16;4984508;28;20203;-70
2022/12/24 09:53:27;;;;;;;45.87;28.00;;;;;;;11.19;65.66;99406.06;4987711;28;20643;-67
2022/12/24 09:55:58;;;;;;;40.93;26.10;;;;;;;11.31;65.26;99404.44;4990555;28;20188;-68
2022/12/24 09:58:29;;;;;;;47.33;25.50;;;;;;;11.43;64.27;99402.81;4990145;28;20672;-66
2022/12/24 10:00:57;;;;;;;48.90;26.67;;;;;;;11.57;64.74;99404.47;4970523;28;20263;-67
2022/12/24 10:03:24;;;;;;;37.20;26.90;;;;;;;11.55;63.76;99398.53;4972036;28;20204;-68
2022/12/24 10:06:04;;;;;;;43.20;28.33;;;;;;;11.53;63.98;99394.44;4972564;28;20259;-68
2022/12/24 10:08:42;;;;;;;41.70;26.83;;;;;;;11.64;64.55;99394.66;4971851;28;20646;-69
2022/12/24 10:11:19;;;;;;;48.07;30.53;;;;;;;11.82;64.07;99397.53;4971815;28;20668;-68
2022/12/24 10:14:03;;;;;;;47.23;28.50;;;;;;;11.98;63.20;99391.78;4972705;28;20318;-68
2022/12/24 10:16:39;;;;;;;44.33;25.73;;;;;;;12.16;63.30;99394.59;4972570;28;20631;-69
2022/12/24 10:19:16;;;;;;;44.70;27.17;;;;;;;12.27;61.67;99396.63;4972251;28;20210;-69
2022/12/24 10:21:52;;;;;;;41.13;26.53;;;;;;;12.16;61.92;99394.59;4973315;28;20224;-69
2022/12/24 10:24:25;;;;;;;46.23;26.53;;;;;;;12.00;62.00;99381.75;4971357;28;20190;-70
2022/12/24 10:26:58;;;;;;;46.93;26.80;;;;;;;12.02;62.80;99377.03;4978127;28;20635;-70
2022/12/24 10:29:29;;;;;;;40.17;24.73;;;;;;;12.11;62.19;99378.44;4990132;28;20251;-68
2022/12/24 10:32:00;;;;;;;47.53;26.77;;;;;;;12.23;62.32;99368.78;4992857;28;20255;-70
2022/12/24 10:34:32;;;;;;;47.20;27.97;;;;;;;12.37;61.91;99374.91;4992609;28;20721;-71
2022/12/24 10:37:03;;;;;;;60.90;33.43;;;;;;;12.36;61.14;99373.25;4992867;28;20200;-75
2022/12/24 10:39:30;;;;;;;54.37;33.37;;;;;;;12.42;60.93;99377.75;4992994;28;20184;-69
2022/12/24 10:41:59;;;;;;;48.43;31.07;;;;;;;12.44;60.85;99381.81;4992820;28;20260;-69
2022/12/24 10:44:29;;;;;;;51.13;33.77;;;;;;;12.54;61.09;99362.72;4992280;28;20275;-68
2022/12/24 10:46:56;;;;;;;51.60;31.90;;;;;;;12.83;59.87;99370.97;5024429;28;20189;-68
2022/12/24 10:49:30;;;;;;;44.60;30.30;;;;;;;12.99;59.87;99369.72;4992178;28;20209;-68
2022/12/24 10:52:00;;;;;;;56.93;29.67;;;;;;;13.14;59.69;99368.38;4992163;28;20578;-71
2022/12/24 10:54:33;;;;;;;38.23;27.03;;;;;;;13.27;58.76;99367.47;4991386;28;20604;-66
2022/12/24 10:57:01;;;;;;;48.67;29.87;;;;;;;13.34;57.44;99369.06;4992550;28;20192;-68
2022/12/24 10:59:31;;;;;;;54.87;32.00;;;;;;;13.38;57.29;99370.25;4992680;28;20198;-69
2022/12/24 11:01:59;;;;;;;45.97;31.63;;;;;;;13.36;57.38;99364.31;4991882;28;20198;-68
2022/12/24 11:04:29;;;;;;;50.90;31.47;;;;;;;13.41;57.52;99367.16;4991625;28;20205;-68
2022/12/24 11:06:57;;;;;;;46.67;31.23;;;;;;;13.51;57.68;99370.16;4991956;28;20667;-70
2022/12/24 11:09:26;;;;;;;54.73;32.00;;;;;;;13.36;56.97;99372.31;4989772;28;20687;-70
2022/12/24 11:11:55;;;;;;;44.40;29.70;;;;;;;13.32;56.94;99375.66;4991338;28;20638;-70
2022/12/24 11:14:22;;;;;;;52.37;30.03;;;;;;;13.31;57.72;99368.69;5007172;28;20687;-70
2022/12/24 11:16:52;;;;;;;49.80;30.17;;;;;;;13.37;57.71;99367.81;4983692;28;20265;-70
2022/12/24 11:19:25;;;;;;;45.63;27.60;;;;;;;13.33;57.68;99366.59;4971871;28;20686;-70
2022/12/24 11:21:59;;;;;;;50.83;30.50;;;;;;;13.40;57.93;99357.50;4988266;28;20234;-70
2022/12/24 11:24:28;;;;;;;47.43;30.30;;;;;;;13.29;57.37;99360.91;4990031;28;20225;-71
2022/12/24 11:27:18;;;;;;;47.43;29.30;;;;;;;13.27;58.21;99359.47;4988458;28;20198;-69
2022/12/24 11:29:45;;;;;;;43.87;28.90;;;;;;;13.28;58.30;99359.22;4990159;28;20190;-67
2022/12/24 11:32:20;;;;;;;42.53;29.57;;;;;;;13.13;58.02;99334.75;4989631;28;20222;-68
2022/12/24 11:34:48;;;;;;;51.87;30.17;;;;;;;13.23;58.08;99345.72;4988228;28;20251;-68